sensor_id;sensor_type;location;lat;lon;timestamp;pressure;altitude;pressure_sealevel;temperature;humidity
41264;BME280;26998;48.714;9.414;2022-08-25T00:01:07;98798.06;;;17.58;100.00
41264;BME280;26998;48.714;9.414;2022-08-25T00:03:34;98803.16;;;17.54;100.00
41264;BME280;26998;48.714;9.414;2022-08-25T00:06:05;98804.69;;;17.50;100.00
41264;BME280;26998;48.714;9.414;2022-08-25T00:08:32;98800.59;;;17.47;100.00
41264;BME280;26998;48.714;9.414;2022-08-25T00:11:00;98800.34;;;17.32;100.00
41264;BME280;26998;48.714;9.414;2022-08-25T00:13:29;98800.63;;;17.19;100.00
41264;BME280;26998;48.714;9.414;2022-08-25T00:15:55;98794.22;;;17.08;100.00
41264;BME280;26998;48.714;9.414;2022-08-25T00:18:22;98796.13;;;17.07;100.00
41264;BME280;26998;48.714;9.414;2022-08-25T00:20:49;98797.63;;;17.03;100.00
41264;BME280;26998;48.714;9.414;2022-08-25T00:23:15;98802.47;;;17.01;100.00
41264;BME280;26998;48.714;9.414;2022-08-25T00:25:42;98806.22;;;17.00;100.00
41264;BME280;26998;48.714;9.414;2022-08-25T00:28:10;98795.69;;;16.99;100.00
41264;BME280;26998;48.714;9.414;2022-08-25T00:30:40;98801.41;;;17.02;100.00
41264;BME280;26998;48.714;9.414;2022-08-25T00:33:06;98807.06;;;17.01;100.00
41264;BME280;26998;48.714;9.414;2022-08-25T00:35:39;98798.72;;;17.02;100.00
41264;BME280;26998;48.714;9.414;2022-08-25T00:38:05;98798.03;;;16.95;100.00
41264;BME280;26998;48.714;9.414;2022-08-25T00:40:32;98801.78;;;16.94;100.00
41264;BME280;26998;48.714;9.414;2022-08-25T00:42:58;98805.44;;;16.88;100.00
41264;BME280;26998;48.714;9.414;2022-08-25T00:45:25;98799.16;;;16.82;100.00
41264;BME280;26998;48.714;9.414;2022-08-25T00:47:51;98791.28;;;16.81;100.00
41264;BME280;26998;48.714;9.414;2022-08-25T00:50:25;98797.25;;;16.83;100.00
41264;BME280;26998;48.714;9.414;2022-08-25T00:52:55;98796.09;;;16.79;100.00
41264;BME280;26998;48.714;9.414;2022-08-25T00:55:27;98791.53;;;16.79;100.00
41264;BME280;26998;48.714;9.414;2022-08-25T01:00:27;98800.44;;;16.80;100.00
41264;BME280;26998;48.714;9.414;2022-08-25T01:02:53;98789.97;;;16.72;100.00
41264;BME280;26998;48.714;9.414;2022-08-25T01:05:20;98791.41;;;16.62;100.00
41264;BME280;26998;48.714;9.414;2022-08-25T01:07:46;98791.41;;;16.62;100.00
41264;BME280;26998;48.714;9.414;2022-08-25T01:10:13;98794.44;;;16.66;100.00
41264;BME280;26998;48.714;9.414;2022-08-25T01:12:39;98791.19;;;16.64;100.00
41264;BME280;26998;48.714;9.414;2022-08-25T01:15:07;98779.00;;;16.61;100.00
41264;BME280;26998;48.714;9.414;2022-08-25T01:17:34;98787.91;;;16.62;100.00
41264;BME280;26998;48.714;9.414;2022-08-25T01:20:04;98781.50;;;16.51;100.00
41264;BME280;26998;48.714;9.414;2022-08-25T01:22:30;98780.41;;;16.52;100.00
41264;BME280;26998;48.714;9.414;2022-08-25T01:25:04;98780.31;;;16.47;100.00
41264;BME280;26998;48.714;9.414;2022-08-25T01:27:32;98778.00;;;16.39;100.00
41264;BME280;26998;48.714;9.414;2022-08-25T01:29:59;98771.75;;;16.38;100.00
41264;BME280;26998;48.714;9.414;2022-08-25T01:32:25;98780.09;;;16.37;100.00
41264;BME280;26998;48.714;9.414;2022-08-25T01:34:52;98779.50;;;16.35;100.00
41264;BME280;26998;48.714;9.414;2022-08-25T01:37:19;98778.13;;;16.32;100.00
41264;BME280;26998;48.714;9.414;2022-08-25T01:39:45;98774.09;;;16.35;100.00
41264;BME280;26998;48.714;9.414;2022-08-25T01:44:40;98784.44;;;16.38;100.00
41264;BME280;26998;48.714;9.414;2022-08-25T01:47:07;98778.91;;;16.45;100.00
41264;BME280;26998;48.714;9.414;2022-08-25T01:49:33;98777.03;;;16.45;100.00
41264;BME280;26998;48.714;9.414;2022-08-25T01:52:10;98775.97;;;16.46;100.00
41264;BME280;26998;48.714;9.414;2022-08-25T01:54:37;98777.38;;;16.49;100.00
41264;BME280;26998;48.714;9.414;2022-08-25T01:57:04;98774.34;;;16.45;100.00
41264;BME280;26998;48.714;9.414;2022-08-25T01:59:31;98779.63;;;16.40;100.00
41264;BME280;26998;48.714;9.414;2022-08-25T02:01:57;98774.22;;;16.40;100.00
41264;BME280;26998;48.714;9.414;2022-08-25T02:04:26;98770.94;;;16.38;100.00
41264;BME280;26998;48.714;9.414;2022-08-25T02:06:52;98772.00;;;16.37;100.00
41264;BME280;26998;48.714;9.414;2022-08-25T02:09:20;98767.91;;;16.34;100.00
41264;BME280;26998;48.714;9.414;2022-08-25T02:11:46;98768.38;;;16.31;100.00
41264;BME280;26998;48.714;9.414;2022-08-25T02:14:16;98774.03;;;16.30;100.00
41264;BME280;26998;48.714;9.414;2022-08-25T02:16:45;98780.59;;;16.22;100.00
41264;BME280;26998;48.714;9.414;2022-08-25T02:19:14;98773.69;;;16.14;100.00
41264;BME280;26998;48.714;9.414;2022-08-25T02:21:40;98782.94;;;16.07;100.00
41264;BME280;26998;48.714;9.414;2022-08-25T02:24:09;98785.28;;;16.03;100.00
41264;BME280;26998;48.714;9.414;2022-08-25T02:26:36;98788.91;;;15.97;100.00
41264;BME280;26998;48.714;9.414;2022-08-25T02:29:03;98786.00;;;15.99;100.00
41264;BME280;26998;48.714;9.414;2022-08-25T02:31:30;98789.28;;;16.01;100.00
41264;BME280;26998;48.714;9.414;2022-08-25T02:33:57;98785.19;;;15.98;100.00
41264;BME280;26998;48.714;9.414;2022-08-25T02:36:26;98783.06;;;16.00;100.00
41264;BME280;26998;48.714;9.414;2022-08-25T02:38:53;98779.56;;;16.00;100.00
41264;BME280;26998;48.714;9.414;2022-08-25T02:41:21;98776.03;;;15.99;100.00
41264;BME280;26998;48.714;9.414;2022-08-25T02:43:56;98772.88;;;16.02;100.00
41264;BME280;26998;48.714;9.414;2022-08-25T02:46:25;98772.41;;;16.05;100.00
41264;BME280;26998;48.714;9.414;2022-08-25T02:48:52;98776.13;;;16.04;100.00
41264;BME280;26998;48.714;9.414;2022-08-25T02:51:20;98776.72;;;16.06;100.00
41264;BME280;26998;48.714;9.414;2022-08-25T02:53:47;98770.53;;;16.06;100.00
41264;BME280;26998;48.714;9.414;2022-08-25T02:56:14;98766.41;;;16.03;100.00
41264;BME280;26998;48.714;9.414;2022-08-25T02:58:41;98768.31;;;16.03;100.00
41264;BME280;26998;48.714;9.414;2022-08-25T03:01:08;98766.66;;;16.02;100.00
41264;BME280;26998;48.714;9.414;2022-08-25T03:03:35;98768.31;;;16.03;100.00
41264;BME280;26998;48.714;9.414;2022-08-25T03:06:07;98777.19;;;16.03;100.00
41264;BME280;26998;48.714;9.414;2022-08-25T03:08:35;98771.81;;;16.03;100.00
41264;BME280;26998;48.714;9.414;2022-08-25T03:11:02;98768.91;;;16.05;100.00
41264;BME280;26998;48.714;9.414;2022-08-25T03:13:28;98764.19;;;16.00;100.00
41264;BME280;26998;48.714;9.414;2022-08-25T03:15:55;98770.88;;;15.98;100.00
41264;BME280;26998;48.714;9.414;2022-08-25T03:18:21;98776.16;;;15.92;100.00
41264;BME280;26998;48.714;9.414;2022-08-25T03:20:49;98776.84;;;15.88;100.00
41264;BME280;26998;48.714;9.414;2022-08-25T03:23:16;98772.28;;;15.88;100.00
41264;BME280;26998;48.714;9.414;2022-08-25T03:25:42;98775.56;;;15.90;100.00
41264;BME280;26998;48.714;9.414;2022-08-25T03:28:09;98775.81;;;15.89;100.00
41264;BME280;26998;48.714;9.414;2022-08-25T03:30:37;98773.34;;;15.87;100.00
41264;BME280;26998;48.714;9.414;2022-08-25T03:33:04;98774.41;;;15.86;100.00
41264;BME280;26998;48.714;9.414;2022-08-25T03:35:30;98770.28;;;15.84;100.00
41264;BME280;26998;48.714;9.414;2022-08-25T03:37:58;98781.22;;;15.89;100.00
41264;BME280;26998;48.714;9.414;2022-08-25T03:40:25;98776.28;;;15.86;100.00
41264;BME280;26998;48.714;9.414;2022-08-25T03:42:51;98781.69;;;15.86;100.00
41264;BME280;26998;48.714;9.414;2022-08-25T03:45:18;98785.88;;;15.82;100.00
41264;BME280;26998;48.714;9.414;2022-08-25T03:47:45;98788.00;;;15.80;100.00
41264;BME280;26998;48.714;9.414;2022-08-25T03:50:12;98788.00;;;15.80;100.00
41264;BME280;26998;48.714;9.414;2022-08-25T03:52:39;98780.13;;;15.78;100.00
41264;BME280;26998;48.714;9.414;2022-08-25T03:55:08;98777.69;;;15.77;100.00
41264;BME280;26998;48.714;9.414;2022-08-25T03:57:36;98781.41;;;15.76;100.00
41264;BME280;26998;48.714;9.414;2022-08-25T04:00:06;98774.28;;;15.81;100.00
41264;BME280;26998;48.714;9.414;2022-08-25T04:02:35;98773.47;;;15.81;100.00
41264;BME280;26998;48.714;9.414;2022-08-25T04:05:01;98768.53;;;15.78;100.00
41264;BME280;26998;48.714;9.414;2022-08-25T04:07:29;98759.38;;;15.79;100.00
41264;BME280;26998;48.714;9.414;2022-08-25T04:09:55;98753.78;;;15.68;100.00
41264;BME280;26998;48.714;9.414;2022-08-25T04:12:22;98751.75;;;15.64;100.00
41264;BME280;26998;48.714;9.414;2022-08-25T04:14:48;98759.00;;;15.52;100.00
41264;BME280;26998;48.714;9.414;2022-08-25T04:17:15;98763.53;;;15.51;100.00
41264;BME280;26998;48.714;9.414;2022-08-25T04:19:41;98768.38;;;15.49;100.00
41264;BME280;26998;48.714;9.414;2022-08-25T04:22:09;98770.72;;;15.45;100.00
41264;BME280;26998;48.714;9.414;2022-08-25T04:24:35;98767.63;;;15.42;100.00
41264;BME280;26998;48.714;9.414;2022-08-25T04:27:02;98776.78;;;15.41;100.00
41264;BME280;26998;48.714;9.414;2022-08-25T04:29:29;98776.56;;;15.42;100.00
41264;BME280;26998;48.714;9.414;2022-08-25T04:31:55;98786.59;;;15.35;100.00
41264;BME280;26998;48.714;9.414;2022-08-25T04:34:24;98790.34;;;15.34;100.00
41264;BME280;26998;48.714;9.414;2022-08-25T04:36:56;98799.69;;;15.32;100.00
41264;BME280;26998;48.714;9.414;2022-08-25T04:39:23;98791.63;;;15.32;100.00
41264;BME280;26998;48.714;9.414;2022-08-25T04:41:50;98793.13;;;15.28;100.00
41264;BME280;26998;48.714;9.414;2022-08-25T04:44:16;98785.06;;;15.28;100.00
41264;BME280;26998;48.714;9.414;2022-08-25T04:46:43;98788.09;;;15.31;100.00
41264;BME280;26998;48.714;9.414;2022-08-25T04:49:10;98787.44;;;15.36;100.00
41264;BME280;26998;48.714;9.414;2022-08-25T04:51:37;98802.28;;;15.38;100.00
41264;BME280;26998;48.714;9.414;2022-08-25T04:54:07;98798.09;;;15.42;100.00
41264;BME280;26998;48.714;9.414;2022-08-25T04:56:38;98803.47;;;15.42;100.00
41264;BME280;26998;48.714;9.414;2022-08-25T04:59:06;98786.94;;;15.39;100.00
41264;BME280;26998;48.714;9.414;2022-08-25T05:01:36;98792.56;;;15.37;100.00
41264;BME280;26998;48.714;9.414;2022-08-25T05:04:04;98784.84;;;15.41;100.00
41264;BME280;26998;48.714;9.414;2022-08-25T05:06:30;98790.13;;;15.47;100.00
41264;BME280;26998;48.714;9.414;2022-08-25T05:08:57;98792.34;;;15.51;100.00
41264;BME280;26998;48.714;9.414;2022-08-25T05:11:24;98794.59;;;15.54;100.00
41264;BME280;26998;48.714;9.414;2022-08-25T05:13:51;98793.09;;;15.58;100.00
41264;BME280;26998;48.714;9.414;2022-08-25T05:16:19;98794.47;;;15.60;100.00
41264;BME280;26998;48.714;9.414;2022-08-25T05:18:48;98791.09;;;15.65;100.00
41264;BME280;26998;48.714;9.414;2022-08-25T05:21:17;98790.56;;;15.75;100.00
41264;BME280;26998;48.714;9.414;2022-08-25T05:23:43;98785.88;;;15.82;100.00
41264;BME280;26998;48.714;9.414;2022-08-25T05:26:13;98779.53;;;15.88;100.00
41264;BME280;26998;48.714;9.414;2022-08-25T05:28:45;98777.78;;;15.93;100.00
41264;BME280;26998;48.714;9.414;2022-08-25T05:31:12;98771.94;;;15.97;100.00
41264;BME280;26998;48.714;9.414;2022-08-25T05:33:40;98769.47;;;16.07;100.00
41264;BME280;26998;48.714;9.414;2022-08-25T05:36:08;98769.59;;;16.12;100.00
41264;BME280;26998;48.714;9.414;2022-08-25T05:38:36;98770.53;;;16.17;100.00
41264;BME280;26998;48.714;9.414;2022-08-25T05:41:03;98772.03;;;16.25;100.00
41264;BME280;26998;48.714;9.414;2022-08-25T05:43:30;98780.56;;;16.34;100.00
41264;BME280;26998;48.714;9.414;2022-08-25T05:45:57;98770.94;;;16.38;100.00
41264;BME280;26998;48.714;9.414;2022-08-25T05:48:25;98769.66;;;16.40;100.00
41264;BME280;26998;48.714;9.414;2022-08-25T05:50:55;98768.09;;;16.45;100.00
41264;BME280;26998;48.714;9.414;2022-08-25T05:53:22;98769.59;;;16.64;100.00
41264;BME280;26998;48.714;9.414;2022-08-25T05:55:50;98762.31;;;16.76;100.00
41264;BME280;26998;48.714;9.414;2022-08-25T05:58:16;98764.88;;;16.83;100.00
41264;BME280;26998;48.714;9.414;2022-08-25T06:00:43;98750.00;;;16.97;100.00
41264;BME280;26998;48.714;9.414;2022-08-25T06:03:10;98749.16;;;17.08;100.00
41264;BME280;26998;48.714;9.414;2022-08-25T06:05:36;98739.59;;;17.18;100.00
41264;BME280;26998;48.714;9.414;2022-08-25T06:08:03;98740.06;;;17.15;100.00
41264;BME280;26998;48.714;9.414;2022-08-25T06:10:30;98751.13;;;17.30;100.00
41264;BME280;26998;48.714;9.414;2022-08-25T06:12:56;98737.13;;;17.50;100.00
41264;BME280;26998;48.714;9.414;2022-08-25T06:15:24;98742.47;;;17.62;100.00
41264;BME280;26998;48.714;9.414;2022-08-25T06:17:51;98741.31;;;17.74;100.00
41264;BME280;26998;48.714;9.414;2022-08-25T06:20:22;98741.16;;;17.81;100.00
41264;BME280;26998;48.714;9.414;2022-08-25T06:22:52;98732.16;;;17.92;100.00
41264;BME280;26998;48.714;9.414;2022-08-25T06:25:19;98721.09;;;18.16;100.00
41264;BME280;26998;48.714;9.414;2022-08-25T06:27:47;98726.19;;;18.34;100.00
41264;BME280;26998;48.714;9.414;2022-08-25T06:30:15;98740.59;;;18.62;100.00
41264;BME280;26998;48.714;9.414;2022-08-25T06:32:42;98738.59;;;18.74;100.00
41264;BME280;26998;48.714;9.414;2022-08-25T06:35:10;98742.00;;;18.86;100.00
41264;BME280;26998;48.714;9.414;2022-08-25T06:37:37;98747.97;;;18.88;100.00
41264;BME280;26998;48.714;9.414;2022-08-25T06:40:04;98750.19;;;18.91;100.00
41264;BME280;26998;48.714;9.414;2022-08-25T06:42:31;98741.53;;;18.95;100.00
41264;BME280;26998;48.714;9.414;2022-08-25T06:44:57;98741.19;;;19.13;100.00
41264;BME280;26998;48.714;9.414;2022-08-25T06:47:23;98734.78;;;19.24;100.00
41264;BME280;26998;48.714;9.414;2022-08-25T06:49:50;98743.25;;;19.33;100.00
41264;BME280;26998;48.714;9.414;2022-08-25T06:52:22;98740.38;;;19.45;100.00
41264;BME280;26998;48.714;9.414;2022-08-25T06:54:54;98726.66;;;19.56;100.00
41264;BME280;26998;48.714;9.414;2022-08-25T06:57:21;98724.16;;;19.82;99.90
41264;BME280;26998;48.714;9.414;2022-08-25T06:59:48;98728.63;;;20.03;98.47
41264;BME280;26998;48.714;9.414;2022-08-25T07:02:18;98723.31;;;20.34;95.17
41264;BME280;26998;48.714;9.414;2022-08-25T07:04:47;98722.66;;;20.59;93.97
41264;BME280;26998;48.714;9.414;2022-08-25T07:07:14;98738.44;;;20.72;92.92
41264;BME280;26998;48.714;9.414;2022-08-25T07:09:40;98728.41;;;20.83;92.67
41264;BME280;26998;48.714;9.414;2022-08-25T07:12:08;98728.97;;;20.95;90.12
41264;BME280;26998;48.714;9.414;2022-08-25T07:14:34;98727.94;;;21.22;88.79
41264;BME280;26998;48.714;9.414;2022-08-25T07:17:01;98720.59;;;21.28;88.96
41264;BME280;26998;48.714;9.414;2022-08-25T07:19:36;98708.66;;;21.54;87.47
41264;BME280;26998;48.714;9.414;2022-08-25T07:22:02;98717.63;;;21.70;85.30
41264;BME280;26998;48.714;9.414;2022-08-25T07:24:29;98715.38;;;22.08;83.56
41264;BME280;26998;48.714;9.414;2022-08-25T07:26:55;98722.44;;;22.19;82.73
41264;BME280;26998;48.714;9.414;2022-08-25T07:29:23;98718.06;;;22.13;82.66
41264;BME280;26998;48.714;9.414;2022-08-25T07:32:01;98711.19;;;22.41;81.02
41264;BME280;26998;48.714;9.414;2022-08-25T07:34:29;98708.41;;;22.56;80.37
41264;BME280;26998;48.714;9.414;2022-08-25T07:36:56;98707.69;;;22.90;77.96
41264;BME280;26998;48.714;9.414;2022-08-25T07:39:25;98707.56;;;23.11;75.78
41264;BME280;26998;48.714;9.414;2022-08-25T07:41:54;98709.06;;;23.27;75.18
41264;BME280;26998;48.714;9.414;2022-08-25T07:44:21;98714.75;;;22.96;78.10
41264;BME280;26998;48.714;9.414;2022-08-25T07:46:48;98704.88;;;23.05;76.23
41264;BME280;26998;48.714;9.414;2022-08-25T07:49:16;98707.78;;;23.48;73.86
41264;BME280;26998;48.714;9.414;2022-08-25T07:51:48;98703.78;;;23.41;74.69
41264;BME280;26998;48.714;9.414;2022-08-25T07:54:31;98703.81;;;23.70;73.35
41264;BME280;26998;48.714;9.414;2022-08-25T07:57:01;98700.13;;;23.56;73.16
41264;BME280;26998;48.714;9.414;2022-08-25T07:59:27;98704.94;;;23.64;72.73
41264;BME280;26998;48.714;9.414;2022-08-25T08:01:54;98697.75;;;24.26;68.21
41264;BME280;26998;48.714;9.414;2022-08-25T08:04:21;98700.66;;;24.11;69.14
41264;BME280;26998;48.714;9.414;2022-08-25T08:06:47;98698.09;;;24.19;69.26
41264;BME280;26998;48.714;9.414;2022-08-25T08:09:14;98704.66;;;23.94;70.87
41264;BME280;26998;48.714;9.414;2022-08-25T08:11:40;98709.31;;;23.94;68.96
41264;BME280;26998;48.714;9.414;2022-08-25T08:14:19;98699.63;;;24.31;68.59
41264;BME280;26998;48.714;9.414;2022-08-25T08:16:45;98694.22;;;24.50;68.20
41264;BME280;26998;48.714;9.414;2022-08-25T08:19:12;98707.69;;;24.84;67.24
41264;BME280;26998;48.714;9.414;2022-08-25T08:21:39;98709.75;;;25.11;63.89
41264;BME280;26998;48.714;9.414;2022-08-25T08:24:06;98702.50;;;25.20;62.24
41264;BME280;26998;48.714;9.414;2022-08-25T08:26:52;98702.00;;;25.18;62.78
41264;BME280;26998;48.714;9.414;2022-08-25T08:29:24;98702.34;;;25.11;62.88
41264;BME280;26998;48.714;9.414;2022-08-25T08:31:53;98697.03;;;25.01;63.87
41264;BME280;26998;48.714;9.414;2022-08-25T08:34:19;98698.31;;;25.42;60.67
41264;BME280;26998;48.714;9.414;2022-08-25T08:36:50;98694.06;;;25.35;61.86
41264;BME280;26998;48.714;9.414;2022-08-25T08:39:17;98696.75;;;25.54;60.36
41264;BME280;26998;48.714;9.414;2022-08-25T08:47:22;98693.69;;;25.42;61.76
41264;BME280;26998;48.714;9.414;2022-08-25T08:55:06;98685.50;;;26.16;57.11
41264;BME280;26998;48.714;9.414;2022-08-25T08:57:34;98681.72;;;25.85;56.52
41264;BME280;26998;48.714;9.414;2022-08-25T09:00:06;98680.50;;;25.77;57.44
41264;BME280;26998;48.714;9.414;2022-08-25T09:02:37;98684.47;;;25.85;57.07
41264;BME280;26998;48.714;9.414;2022-08-25T09:05:18;98679.59;;;25.82;56.40
41264;BME280;26998;48.714;9.414;2022-08-25T09:07:50;98679.09;;;25.93;55.88
41264;BME280;26998;48.714;9.414;2022-08-25T09:10:20;98679.50;;;26.28;54.72
41264;BME280;26998;48.714;9.414;2022-08-25T09:13:09;98680.53;;;26.18;55.52
41264;BME280;26998;48.714;9.414;2022-08-25T09:15:44;98670.47;;;26.55;53.82
41264;BME280;26998;48.714;9.414;2022-08-25T09:18:32;98670.56;;;26.50;53.38
41264;BME280;26998;48.714;9.414;2022-08-25T09:21:21;98667.06;;;26.72;52.58
41264;BME280;26998;48.714;9.414;2022-08-25T09:23:56;98671.59;;;26.26;54.15
41264;BME280;26998;48.714;9.414;2022-08-25T09:26:34;98673.19;;;26.41;52.61
41264;BME280;26998;48.714;9.414;2022-08-25T09:29:07;98671.97;;;26.47;51.53
41264;BME280;26998;48.714;9.414;2022-08-25T09:31:42;98667.75;;;26.27;52.88
41264;BME280;26998;48.714;9.414;2022-08-25T09:34:11;98667.53;;;26.38;53.00
41264;BME280;26998;48.714;9.414;2022-08-25T09:36:37;98668.56;;;26.42;52.60
41264;BME280;26998;48.714;9.414;2022-08-25T09:39:05;98670.09;;;26.84;51.11
41264;BME280;26998;48.714;9.414;2022-08-25T09:44:02;98674.78;;;27.06;49.44
41264;BME280;26998;48.714;9.414;2022-08-25T09:46:28;98665.72;;;26.83;50.86
41264;BME280;26998;48.714;9.414;2022-08-25T09:48:56;98666.22;;;27.22;49.61
41264;BME280;26998;48.714;9.414;2022-08-25T09:51:30;98664.22;;;27.36;50.01
41264;BME280;26998;48.714;9.414;2022-08-25T09:56:52;98654.78;;;27.06;49.04
41264;BME280;26998;48.714;9.414;2022-08-25T09:59:21;98648.91;;;26.99;50.45
41264;BME280;26998;48.714;9.414;2022-08-25T10:02:04;98645.41;;;27.21;49.73
41264;BME280;26998;48.714;9.414;2022-08-25T10:04:47;98642.94;;;27.19;49.76
41264;BME280;26998;48.714;9.414;2022-08-25T10:07:29;98644.34;;;26.94;51.27
41264;BME280;26998;48.714;9.414;2022-08-25T10:09:58;98640.09;;;27.55;50.47
41264;BME280;26998;48.714;9.414;2022-08-25T10:15:02;98634.66;;;27.33;48.41
41264;BME280;26998;48.714;9.414;2022-08-25T10:17:54;98637.88;;;27.66;48.07
41264;BME280;26998;48.714;9.414;2022-08-25T10:20:24;98638.09;;;28.09;46.26
41264;BME280;26998;48.714;9.414;2022-08-25T10:23:10;98630.19;;;27.77;45.91
41264;BME280;26998;48.714;9.414;2022-08-25T10:28:17;98623.06;;;28.07;44.66
41264;BME280;26998;48.714;9.414;2022-08-25T10:31:09;98610.09;;;28.73;45.02
41264;BME280;26998;48.714;9.414;2022-08-25T10:33:43;98606.38;;;28.61;45.65
41264;BME280;26998;48.714;9.414;2022-08-25T10:36:19;98610.00;;;28.30;43.47
41264;BME280;26998;48.714;9.414;2022-08-25T10:38:54;98608.22;;;28.25;44.32
41264;BME280;26998;48.714;9.414;2022-08-25T10:41:26;98603.13;;;28.41;45.19
41264;BME280;26998;48.714;9.414;2022-08-25T10:44:10;98602.72;;;28.25;44.93
41264;BME280;26998;48.714;9.414;2022-08-25T10:46:48;98594.72;;;28.55;44.14
41264;BME280;26998;48.714;9.414;2022-08-25T10:49:22;98602.75;;;28.34;43.94
41264;BME280;26998;48.714;9.414;2022-08-25T10:51:56;98605.66;;;28.38;44.61
41264;BME280;26998;48.714;9.414;2022-08-25T11:00:06;98595.03;;;28.45;43.61
41264;BME280;26998;48.714;9.414;2022-08-25T11:02:56;98597.78;;;28.88;42.68
41264;BME280;26998;48.714;9.414;2022-08-25T11:05:27;98601.34;;;28.80;42.54
41264;BME280;26998;48.714;9.414;2022-08-25T11:08:00;98591.47;;;29.14;42.27
41264;BME280;26998;48.714;9.414;2022-08-25T11:10:40;98585.94;;;28.88;42.69
41264;BME280;26998;48.714;9.414;2022-08-25T11:18:40;98580.31;;;29.02;42.16
41264;BME280;26998;48.714;9.414;2022-08-25T11:21:22;98575.31;;;29.51;41.49
41264;BME280;26998;48.714;9.414;2022-08-25T11:23:52;98576.72;;;28.92;42.17
41264;BME280;26998;48.714;9.414;2022-08-25T11:26:22;98582.56;;;29.17;41.63
41264;BME280;26998;48.714;9.414;2022-08-25T11:29:00;98565.75;;;29.01;42.21
41264;BME280;26998;48.714;9.414;2022-08-25T11:31:28;98559.75;;;28.82;42.00
41264;BME280;26998;48.714;9.414;2022-08-25T11:33:57;98562.38;;;28.69;42.24
41264;BME280;26998;48.714;9.414;2022-08-25T11:36:29;98565.03;;;29.21;42.15
41264;BME280;26998;48.714;9.414;2022-08-25T11:39:10;98550.06;;;29.49;41.26
41264;BME280;26998;48.714;9.414;2022-08-25T11:50:03;98542.44;;;29.54;41.28
41264;BME280;26998;48.714;9.414;2022-08-25T11:57:48;98548.59;;;29.89;39.18
41264;BME280;26998;48.714;9.414;2022-08-25T12:00:36;98541.63;;;29.54;40.23
41264;BME280;26998;48.714;9.414;2022-08-25T12:05:49;98543.94;;;29.34;40.75
41264;BME280;26998;48.714;9.414;2022-08-25T12:08:16;98543.47;;;29.41;40.28
41264;BME280;26998;48.714;9.414;2022-08-25T12:11:04;98539.31;;;29.64;40.08
41264;BME280;26998;48.714;9.414;2022-08-25T12:13:46;98537.06;;;30.17;39.12
41264;BME280;26998;48.714;9.414;2022-08-25T12:21:46;98543.97;;;30.65;37.35
41264;BME280;26998;48.714;9.414;2022-08-25T12:24:12;98533.63;;;30.62;37.24
41264;BME280;26998;48.714;9.414;2022-08-25T12:26:43;98539.66;;;29.63;39.62
41264;BME280;26998;48.714;9.414;2022-08-25T12:29:14;98540.47;;;29.16;40.35
41264;BME280;26998;48.714;9.414;2022-08-25T12:37:03;98534.13;;;30.43;38.28
41264;BME280;26998;48.714;9.414;2022-08-25T12:39:42;98520.72;;;29.91;39.57
41264;BME280;26998;48.714;9.414;2022-08-25T12:42:29;98525.03;;;30.01;38.98
41264;BME280;26998;48.714;9.414;2022-08-25T12:47:46;98518.16;;;30.07;37.33
41264;BME280;26998;48.714;9.414;2022-08-25T12:53:06;98512.13;;;30.13;38.68
41264;BME280;26998;48.714;9.414;2022-08-25T12:55:34;98519.22;;;30.44;37.12
41264;BME280;26998;48.714;9.414;2022-08-25T12:58:04;98517.56;;;30.64;36.94
41264;BME280;26998;48.714;9.414;2022-08-25T13:00:44;98512.19;;;30.05;38.42
41264;BME280;26998;48.714;9.414;2022-08-25T13:03:25;98518.84;;;30.04;38.07
41264;BME280;26998;48.714;9.414;2022-08-25T13:06:04;98514.69;;;30.40;37.58
41264;BME280;26998;48.714;9.414;2022-08-25T13:14:13;98506.34;;;30.27;37.78
41264;BME280;26998;48.714;9.414;2022-08-25T13:16:50;98509.00;;;29.73;38.05
41264;BME280;26998;48.714;9.414;2022-08-25T13:19:17;98507.78;;;29.83;37.96
41264;BME280;26998;48.714;9.414;2022-08-25T13:21:46;98502.63;;;29.43;38.70
41264;BME280;26998;48.714;9.414;2022-08-25T13:26:45;98498.69;;;29.91;38.18
41264;BME280;26998;48.714;9.414;2022-08-25T13:29:23;98502.28;;;29.83;37.49
41264;BME280;26998;48.714;9.414;2022-08-25T13:34:29;98480.06;;;29.20;39.45
41264;BME280;26998;48.714;9.414;2022-08-25T13:37:04;98485.25;;;29.13;39.09
41264;BME280;26998;48.714;9.414;2022-08-25T13:39:32;98487.22;;;29.12;38.98
41264;BME280;26998;48.714;9.414;2022-08-25T13:42:19;98479.41;;;29.53;38.18
41264;BME280;26998;48.714;9.414;2022-08-25T13:44:54;98471.72;;;29.97;37.66
41264;BME280;26998;48.714;9.414;2022-08-25T13:47:34;98478.53;;;30.20;37.17
41264;BME280;26998;48.714;9.414;2022-08-25T13:52:53;98469.22;;;29.83;36.98
41264;BME280;26998;48.714;9.414;2022-08-25T13:55:25;98466.41;;;29.91;37.12
41264;BME280;26998;48.714;9.414;2022-08-25T13:57:54;98474.34;;;30.14;36.57
41264;BME280;26998;48.714;9.414;2022-08-25T14:00:59;98472.25;;;30.11;35.95
41264;BME280;26998;48.714;9.414;2022-08-25T14:03:33;98467.88;;;29.89;36.98
41264;BME280;26998;48.714;9.414;2022-08-25T14:08:32;98465.34;;;30.05;37.46
41264;BME280;26998;48.714;9.414;2022-08-25T14:11:05;98467.81;;;29.77;37.66
41264;BME280;26998;48.714;9.414;2022-08-25T14:13:41;98466.00;;;30.02;37.24
41264;BME280;26998;48.714;9.414;2022-08-25T14:16:11;98455.97;;;30.18;36.49
41264;BME280;26998;48.714;9.414;2022-08-25T14:18:44;98466.25;;;30.09;37.31
41264;BME280;26998;48.714;9.414;2022-08-25T14:21:11;98455.56;;;29.65;37.66
41264;BME280;26998;48.714;9.414;2022-08-25T14:23:39;98461.09;;;29.86;37.62
41264;BME280;26998;48.714;9.414;2022-08-25T14:26:07;98462.53;;;29.33;38.33
41264;BME280;26998;48.714;9.414;2022-08-25T14:28:34;98457.16;;;29.07;37.96
41264;BME280;26998;48.714;9.414;2022-08-25T14:31:13;98459.03;;;29.15;37.67
41264;BME280;26998;48.714;9.414;2022-08-25T14:33:41;98448.78;;;29.63;36.88
41264;BME280;26998;48.714;9.414;2022-08-25T14:36:08;98451.84;;;29.91;36.44